Time;durP1;ratioP1;P1;durP2;ratioP2;P2;SDS_P1;SDS_P2;PMS_P1;PMS_P2;Temp;Humidity;BMP_temperature;BMP_pressure;BME280_temperature;BME280_humidity;BME280_pressure;Samples;Min_cycle;Max_cycle;Signal;HPM_P1;HPM_P2
2022/04/27 00:02:11;;;;;;;;;;;19.30;56.50;;;;;;5006176;28;20134;-71
2022/04/27 00:04:36;;;;;;;;;;;19.30;56.40;;;;;;5007051;28;19914;-71
2022/04/27 00:07:04;;;;;;;;;;;19.30;56.40;;;;;;5006856;28;19909;-64
2022/04/27 00:09:30;;;;;;;;;;;19.30;56.40;;;;;;5006340;28;19913;-69
2022/04/27 00:11:59;;;;;;;;;;;19.30;56.40;;;;;;5006628;28;19929;-69
2022/04/27 00:14:25;;;;;;;;;;;19.30;56.40;;;;;;5000787;28;19914;-71
2022/04/27 00:16:51;;;;;;;;;;;19.30;56.30;;;;;;5006988;28;19921;-66
2022/04/27 00:19:16;;;;;;;;;;;19.30;56.30;;;;;;4993275;28;19913;-69
2022/04/27 00:21:42;;;;;;;;;;;19.30;56.30;;;;;;5006534;28;19909;-68
2022/04/27 00:24:07;;;;;;;;;;;19.30;56.30;;;;;;5006099;28;19952;-69
2022/04/27 00:26:32;;;;;;;;;;;19.30;56.30;;;;;;5006621;28;19952;-67
2022/04/27 00:28:58;;;;;;;;;;;19.30;56.20;;;;;;4996602;28;19972;-70
2022/04/27 00:31:24;;;;;;;;;;;19.30;56.20;;;;;;5006046;28;20265;-69
2022/04/27 00:33:50;;;;;;;;;;;19.30;56.20;;;;;;5006348;28;20331;-69
2022/04/27 00:36:15;;;;;;;;;;;19.30;56.20;;;;;;5004588;28;19910;-69
2022/04/27 00:38:41;;;;;;;;;;;19.30;56.20;;;;;;5000559;28;19999;-71
2022/04/27 00:41:06;;;;;;;;;;;19.30;56.20;;;;;;5006006;28;19924;-68
2022/04/27 00:43:39;;;;;;;;;;;19.30;56.20;;;;;;5005648;28;19918;-69
2022/04/27 00:46:04;;;;;;;;;;;19.30;56.20;;;;;;5004754;28;19940;-68
2022/04/27 00:48:29;;;;;;;;;;;19.30;56.10;;;;;;5003508;28;19913;-68
2022/04/27 00:50:56;;;;;;;;;;;19.30;56.10;;;;;;4988515;28;19919;-68
2022/04/27 00:53:22;;;;;;;;;;;19.30;56.10;;;;;;4989062;28;19914;-72
2022/04/27 00:55:47;;;;;;;;;;;19.30;56.10;;;;;;4999661;28;20365;-69
2022/04/27 00:58:12;;;;;;;;;;;19.20;56.00;;;;;;5003470;28;19992;-71
2022/04/27 01:00:38;;;;;;;;;;;19.30;56.10;;;;;;4988086;28;20423;-70
2022/04/27 01:03:03;;;;;;;;;;;19.20;56.00;;;;;;4988093;28;19933;-68
2022/04/27 01:05:29;;;;;;;;;;;19.20;56.00;;;;;;4987180;28;19999;-68
2022/04/27 01:07:59;;;;;;;;;;;19.20;56.00;;;;;;5005361;28;19992;-68
2022/04/27 01:10:26;;;;;;;;;;;19.20;56.00;;;;;;4990438;28;19914;-68
2022/04/27 01:12:52;;;;;;;;;;;19.30;56.00;;;;;;4988057;28;19918;-69
2022/04/27 01:15:33;;;;;;;;;;;19.20;56.00;;;;;;5005854;28;20405;-68
2022/04/27 01:17:58;;;;;;;;;;;19.20;56.00;;;;;;5005704;28;20025;-71
2022/04/27 01:20:24;;;;;;;;;;;19.20;55.90;;;;;;4992302;28;20013;-68
2022/04/27 01:22:49;;;;;;;;;;;19.20;55.90;;;;;;4987466;28;19918;-68
2022/04/27 01:25:14;;;;;;;;;;;19.30;56.00;;;;;;5005103;28;19914;-69
2022/04/27 01:27:43;;;;;;;;;;;19.20;55.90;;;;;;5003664;28;19999;-69
2022/04/27 01:30:10;;;;;;;;;;;19.20;55.90;;;;;;4995026;28;20037;-69
2022/04/27 01:32:35;;;;;;;;;;;19.20;55.90;;;;;;5004433;28;19920;-71
2022/04/27 01:35:01;;;;;;;;;;;19.20;55.80;;;;;;5005567;28;19910;-69
2022/04/27 01:40:10;;;;;;;;;;;19.20;55.80;;;;;;5004583;28;19998;-68
2022/04/27 01:42:36;;;;;;;;;;;19.20;55.80;;;;;;5004543;28;20451;-67
2022/04/27 01:45:02;;;;;;;;;;;19.20;55.80;;;;;;4996242;28;19957;-68
2022/04/27 01:47:27;;;;;;;;;;;19.20;55.80;;;;;;4985753;28;19910;-69
2022/04/27 01:49:53;;;;;;;;;;;19.20;55.80;;;;;;4992233;28;19921;-67
2022/04/27 01:55:02;;;;;;;;;;;19.20;55.70;;;;;;5005063;28;20279;-68
2022/04/27 01:57:28;;;;;;;;;;;19.20;55.70;;;;;;5003411;28;19909;-68
2022/04/27 01:59:55;;;;;;;;;;;19.20;55.70;;;;;;5004811;28;20333;-72
2022/04/27 02:02:20;;;;;;;;;;;19.20;55.70;;;;;;4987278;28;19935;-68
2022/04/27 02:04:46;;;;;;;;;;;19.20;55.70;;;;;;5004127;28;20347;-66
2022/04/27 02:07:12;;;;;;;;;;;19.20;55.70;;;;;;5002651;28;19917;-68
2022/04/27 02:09:37;;;;;;;;;;;19.20;55.60;;;;;;5004275;28;19964;-70
2022/04/27 02:12:06;;;;;;;;;;;19.20;55.60;;;;;;4986256;28;19917;-67
2022/04/27 02:14:31;;;;;;;;;;;19.20;55.70;;;;;;5004331;28;19935;-67
2022/04/27 02:16:57;;;;;;;;;;;19.20;55.70;;;;;;5004881;28;20387;-70
2022/04/27 02:19:23;;;;;;;;;;;19.20;55.70;;;;;;5004496;28;19909;-68
2022/04/27 02:21:48;;;;;;;;;;;19.10;55.50;;;;;;4988120;28;19979;-69
2022/04/27 02:24:14;;;;;;;;;;;19.10;55.50;;;;;;5003928;28;19940;-67
2022/04/27 02:26:40;;;;;;;;;;;19.10;55.50;;;;;;5003417;28;19909;-67
2022/04/27 02:29:07;;;;;;;;;;;19.20;55.50;;;;;;5002796;28;19913;-68
2022/04/27 02:31:33;;;;;;;;;;;19.20;55.50;;;;;;4991295;28;19991;-68
2022/04/27 02:33:58;;;;;;;;;;;19.10;55.50;;;;;;5004120;28;19918;-68
2022/04/27 02:36:24;;;;;;;;;;;19.20;55.50;;;;;;4996956;28;19960;-69
2022/04/27 02:38:49;;;;;;;;;;;19.20;55.40;;;;;;5006247;28;19959;-68
2022/04/27 02:41:15;;;;;;;;;;;19.10;55.40;;;;;;5008504;28;20261;-68
2022/04/27 02:43:40;;;;;;;;;;;19.10;55.40;;;;;;5007925;28;19948;-70
2022/04/27 02:46:06;;;;;;;;;;;19.10;55.40;;;;;;4997168;28;20170;-68
2022/04/27 02:48:32;;;;;;;;;;;19.10;55.40;;;;;;5007667;28;20408;-67
2022/04/27 02:53:41;;;;;;;;;;;19.10;55.40;;;;;;5008114;28;19999;-70
2022/04/27 02:56:07;;;;;;;;;;;19.10;55.30;;;;;;5008380;28;19921;-70
2022/04/27 02:58:32;;;;;;;;;;;19.10;55.30;;;;;;5006560;28;20368;-70
2022/04/27 03:00:57;;;;;;;;;;;19.10;55.30;;;;;;5008771;28;19909;-70
2022/04/27 03:03:23;;;;;;;;;;;19.10;55.30;;;;;;5007751;28;19971;-69
2022/04/27 03:05:48;;;;;;;;;;;19.10;55.30;;;;;;5008349;28;19959;-70
2022/04/27 03:08:14;;;;;;;;;;;19.10;55.30;;;;;;5007935;28;20269;-67
2022/04/27 03:10:39;;;;;;;;;;;19.10;55.30;;;;;;5005645;28;19914;-72
2022/04/27 03:13:05;;;;;;;;;;;19.10;55.30;;;;;;5007456;28;20397;-70
2022/04/27 03:15:32;;;;;;;;;;;19.10;55.30;;;;;;4996357;28;19988;-67
2022/04/27 03:20:42;;;;;;;;;;;19.10;55.30;;;;;;5005386;28;20387;-71
2022/04/27 03:23:07;;;;;;;;;;;19.10;55.30;;;;;;5007469;28;19914;-70
2022/04/27 03:25:33;;;;;;;;;;;19.10;55.30;;;;;;5007111;28;19970;-70
2022/04/27 03:27:58;;;;;;;;;;;19.10;55.30;;;;;;5007228;28;19917;-71
2022/04/27 03:30:24;;;;;;;;;;;19.10;55.30;;;;;;5007543;28;20004;-71
2022/04/27 03:32:49;;;;;;;;;;;19.10;55.30;;;;;;5006261;28;19944;-70
2022/04/27 03:35:15;;;;;;;;;;;19.10;55.30;;;;;;4989768;28;19942;-71
2022/04/27 03:37:41;;;;;;;;;;;19.00;55.20;;;;;;5005697;28;20257;-71
2022/04/27 03:40:07;;;;;;;;;;;19.00;55.20;;;;;;4989591;28;19921;-73
2022/04/27 03:42:32;;;;;;;;;;;19.00;55.20;;;;;;5007946;28;19914;-70
2022/04/27 03:44:57;;;;;;;;;;;19.00;55.20;;;;;;5009196;28;20070;-71
2022/04/27 03:47:23;;;;;;;;;;;19.00;55.20;;;;;;4998311;28;20849;-70
2022/04/27 03:49:49;;;;;;;;;;;19.10;55.20;;;;;;4972792;28;19914;-71
2022/04/27 03:52:14;;;;;;;;;;;19.00;55.20;;;;;;4996337;28;19910;-71
2022/04/27 03:54:39;;;;;;;;;;;19.00;55.20;;;;;;5008815;28;20012;-71
2022/04/27 03:57:05;;;;;;;;;;;19.00;55.20;;;;;;5008277;28;19913;-71
2022/04/27 03:59:30;;;;;;;;;;;19.00;55.20;;;;;;4989231;28;19914;-70
2022/04/27 04:01:56;;;;;;;;;;;19.00;55.20;;;;;;4992960;28;20356;-69
2022/04/27 04:04:21;;;;;;;;;;;19.00;55.10;;;;;;4989961;28;19932;-71
2022/04/27 04:06:48;;;;;;;;;;;19.00;55.10;;;;;;5006213;28;19918;-70
2022/04/27 04:09:13;;;;;;;;;;;19.00;55.20;;;;;;5005754;28;20380;-70
2022/04/27 04:11:39;;;;;;;;;;;19.00;55.10;;;;;;5007125;28;19929;-70
2022/04/27 04:14:04;;;;;;;;;;;19.00;55.10;;;;;;5006814;28;19967;-69
2022/04/27 04:16:30;;;;;;;;;;;19.00;55.10;;;;;;5007705;28;19914;-69
2022/04/27 04:18:55;;;;;;;;;;;19.00;55.10;;;;;;5005627;28;19910;-70
2022/04/27 04:21:21;;;;;;;;;;;19.00;55.10;;;;;;5005462;28;20233;-70
2022/04/27 04:23:46;;;;;;;;;;;19.00;55.10;;;;;;5006846;28;19932;-70
2022/04/27 04:28:56;;;;;;;;;;;19.00;55.00;;;;;;5005770;28;19920;-72
2022/04/27 04:31:21;;;;;;;;;;;19.00;55.00;;;;;;5006599;28;20549;-68
2022/04/27 04:33:46;;;;;;;;;;;19.00;55.00;;;;;;5002647;28;20026;-70
2022/04/27 04:36:12;;;;;;;;;;;19.00;55.00;;;;;;5006456;28;19909;-68
2022/04/27 04:38:38;;;;;;;;;;;19.10;55.20;;;;;;5005784;28;20411;-69
2022/04/27 04:41:03;;;;;;;;;;;19.10;55.30;;;;;;4989813;28;19910;-69
2022/04/27 04:43:34;;;;;;;;;;;19.10;55.40;;;;;;5006980;28;19917;-70
2022/04/27 04:46:00;;;;;;;;;;;19.10;55.50;;;;;;5005793;28;19921;-68
2022/04/27 04:48:25;;;;;;;;;;;19.10;55.80;;;;;;4995774;28;19910;-69
2022/04/27 04:50:51;;;;;;;;;;;19.20;56.10;;;;;;5005989;28;19914;-68
2022/04/27 04:53:18;;;;;;;;;;;19.30;56.00;;;;;;4995086;28;19918;-69
2022/04/27 04:55:43;;;;;;;;;;;19.30;55.90;;;;;;5006107;28;19985;-71
2022/04/27 04:58:10;;;;;;;;;;;19.50;55.80;;;;;;5005926;28;19917;-68
2022/04/27 05:00:36;;;;;;;;;;;19.60;55.70;;;;;;5004609;28;19997;-67
2022/04/27 05:03:02;;;;;;;;;;;19.70;55.80;;;;;;5005455;28;19913;-67
2022/04/27 05:05:27;;;;;;;;;;;19.60;55.70;;;;;;5006019;28;19980;-66
2022/04/27 05:07:53;;;;;;;;;;;19.60;55.70;;;;;;5005631;28;19921;-65
2022/04/27 05:10:18;;;;;;;;;;;19.60;55.60;;;;;;5004363;28;19952;-68
2022/04/27 05:12:44;;;;;;;;;;;19.60;55.70;;;;;;4970563;28;19917;-67
2022/04/27 05:15:09;;;;;;;;;;;19.50;55.60;;;;;;5005610;28;20343;-68
2022/04/27 05:17:35;;;;;;;;;;;19.50;55.70;;;;;;5004235;28;19914;-68
2022/04/27 05:20:01;;;;;;;;;;;19.60;55.80;;;;;;5004539;28;19985;-67
2022/04/27 05:22:32;;;;;;;;;;;19.60;55.70;;;;;;5005120;28;19910;-68
2022/04/27 05:25:00;;;;;;;;;;;19.50;55.60;;;;;;5003484;28;20670;-65
2022/04/27 05:27:25;;;;;;;;;;;19.50;55.70;;;;;;5002699;28;19920;-70
2022/04/27 05:32:39;;;;;;;;;;;19.60;56.10;;;;;;5004035;28;19940;-70
2022/04/27 05:35:05;;;;;;;;;;;19.60;56.10;;;;;;5003000;28;19915;-71
2022/04/27 05:37:30;;;;;;;;;;;19.60;56.10;;;;;;5004106;28;19990;-68
2022/04/27 05:39:56;;;;;;;;;;;19.60;56.00;;;;;;5004584;28;19921;-70
2022/04/27 05:42:22;;;;;;;;;;;19.60;55.90;;;;;;5004931;28;20360;-70
2022/04/27 05:44:47;;;;;;;;;;;19.50;56.30;;;;;;5004892;28;19992;-68
2022/04/27 05:47:12;;;;;;;;;;;19.50;55.60;;;;;;5005366;28;19924;-66
2022/04/27 05:49:38;;;;;;;;;;;19.50;55.50;;;;;;4992430;28;19960;-70
2022/04/27 05:52:04;;;;;;;;;;;19.50;55.30;;;;;;4987231;28;19948;-70
2022/04/27 05:54:29;;;;;;;;;;;19.50;55.30;;;;;;4995507;28;19916;-70
2022/04/27 05:56:55;;;;;;;;;;;19.40;55.10;;;;;;4987778;28;19964;-69
2022/04/27 05:59:21;;;;;;;;;;;19.40;55.10;;;;;;5004516;28;19918;-71
2022/04/27 06:01:46;;;;;;;;;;;19.40;54.90;;;;;;5004829;28;19916;-66
2022/04/27 06:04:11;;;;;;;;;;;19.40;54.80;;;;;;4991557;28;19914;-68
2022/04/27 06:06:37;;;;;;;;;;;19.40;54.60;;;;;;5004930;28;19917;-69
2022/04/27 06:09:03;;;;;;;;;;;19.30;54.40;;;;;;4999727;28;19989;-68
2022/04/27 06:11:28;;;;;;;;;;;19.30;54.20;;;;;;5005140;28;19918;-71
2022/04/27 06:13:54;;;;;;;;;;;19.30;54.40;;;;;;5003776;28;19990;-68
2022/04/27 06:16:22;;;;;;;;;;;19.30;54.60;;;;;;5004609;28;19934;-67
2022/04/27 06:18:47;;;;;;;;;;;19.30;54.80;;;;;;5009096;28;20351;-69
2022/04/27 06:21:13;;;;;;;;;;;19.30;55.10;;;;;;5006218;28;19913;-69
2022/04/27 06:23:38;;;;;;;;;;;19.30;55.70;;;;;;5004498;28;19979;-68
2022/04/27 06:26:05;;;;;;;;;;;19.30;55.70;;;;;;5005824;28;19910;-67
2022/04/27 06:28:31;;;;;;;;;;;19.30;55.60;;;;;;4987473;28;19992;-70
2022/04/27 06:30:57;;;;;;;;;;;19.30;55.60;;;;;;5018594;23;20429;-69
2022/04/27 06:33:22;;;;;;;;;;;19.30;55.60;;;;;;5060078;28;19913;-69
2022/04/27 06:35:48;;;;;;;;;;;19.30;55.60;;;;;;5044077;28;19942;-70
2022/04/27 06:38:13;;;;;;;;;;;19.30;55.60;;;;;;5060609;28;20535;-69
2022/04/27 06:40:39;;;;;;;;;;;19.20;55.40;;;;;;5043905;28;19977;-69
2022/04/27 06:43:04;;;;;;;;;;;19.20;55.30;;;;;;5044465;28;19963;-70
2022/04/27 06:45:31;;;;;;;;;;;19.20;55.30;;;;;;5045035;28;20363;-70
2022/04/27 06:47:57;;;;;;;;;;;19.20;55.20;;;;;;5045229;28;19919;-70
2022/04/27 06:50:22;;;;;;;;;;;19.20;55.90;;;;;;5042614;28;20681;-70
2022/04/27 06:52:48;;;;;;;;;;;19.20;55.20;;;;;;5044757;28;20505;-70
2022/04/27 06:55:13;;;;;;;;;;;19.20;55.10;;;;;;5043402;28;19919;-70
2022/04/27 06:57:39;;;;;;;;;;;19.20;55.10;;;;;;5043592;28;19967;-70
2022/04/27 07:00:05;;;;;;;;;;;19.20;55.00;;;;;;5044277;28;19913;-68
2022/04/27 07:02:30;;;;;;;;;;;19.10;55.00;;;;;;5026263;28;19917;-70
2022/04/27 07:04:59;;;;;;;;;;;19.10;55.00;;;;;;5043751;28;19916;-70
2022/04/27 07:07:25;;;;;;;;;;;19.10;55.00;;;;;;5027243;28;19952;-70
2022/04/27 07:09:51;;;;;;;;;;;19.10;55.00;;;;;;5043311;28;19941;-70
2022/04/27 07:12:16;;;;;;;;;;;19.10;55.00;;;;;;5026768;28;19920;-75
2022/04/27 07:14:41;;;;;;;;;;;19.10;55.00;;;;;;5043209;28;20521;-73
2022/04/27 07:17:07;;;;;;;;;;;19.10;55.60;;;;;;5044255;28;19959;-72
2022/04/27 07:19:32;;;;;;;;;;;19.10;56.10;;;;;;5042484;28;19963;-74
2022/04/27 07:21:59;;;;;;;;;;;19.20;56.20;;;;;;5044103;28;19913;-73
2022/04/27 07:24:25;;;;;;;;;;;19.10;56.20;;;;;;5028284;28;19917;-74
2022/04/27 07:26:51;;;;;;;;;;;19.10;56.20;;;;;;5048390;28;19950;-71
2022/04/27 07:29:16;;;;;;;;;;;19.20;56.30;;;;;;5045060;28;19924;-75
2022/04/27 07:31:42;;;;;;;;;;;19.20;56.30;;;;;;5046542;28;19916;-76
2022/04/27 07:34:07;;;;;;;;;;;19.10;56.30;;;;;;5047548;28;19917;-76
2022/04/27 07:36:32;;;;;;;;;;;19.20;56.50;;;;;;5045813;28;20360;-75
2022/04/27 07:38:58;;;;;;;;;;;19.20;56.50;;;;;;5045441;28;19940;-75
2022/04/27 07:41:23;;;;;;;;;;;19.20;56.50;;;;;;5045513;28;19917;-74
2022/04/27 07:43:49;;;;;;;;;;;19.20;56.40;;;;;;5028777;28;19919;-75
2022/04/27 07:46:14;;;;;;;;;;;19.20;56.40;;;;;;5028984;28;19932;-75
2022/04/27 07:48:40;;;;;;;;;;;19.20;56.50;;;;;;5023814;28;19916;-75
2022/04/27 07:51:06;;;;;;;;;;;19.20;56.50;;;;;;5045822;28;19920;-74
2022/04/27 07:53:32;;;;;;;;;;;19.20;56.50;;;;;;5029199;28;20599;-75
2022/04/27 07:55:57;;;;;;;;;;;19.20;56.50;;;;;;5045893;28;20000;-73
2022/04/27 07:58:22;;;;;;;;;;;19.20;56.50;;;;;;5045281;28;20260;-71
2022/04/27 08:00:48;;;;;;;;;;;19.20;56.50;;;;;;5038525;28;19913;-73
2022/04/27 08:03:13;;;;;;;;;;;19.20;56.60;;;;;;5046571;28;19923;-71
2022/04/27 08:05:39;;;;;;;;;;;19.20;57.00;;;;;;5030146;28;19935;-68
2022/04/27 08:08:08;;;;;;;;;;;19.20;56.80;;;;;;5052666;28;19912;-68
2022/04/27 08:10:33;;;;;;;;;;;19.30;56.80;;;;;;5060853;28;19965;-68
2022/04/27 08:12:59;;;;;;;;;;;19.30;56.90;;;;;;5043138;28;19912;-68
2022/04/27 08:15:25;;;;;;;;;;;19.20;56.80;;;;;;5067278;28;19924;-70
2022/04/27 08:17:58;;;;;;;;;;;19.20;56.90;;;;;;5047955;28;21251;-71
2022/04/27 08:23:08;;;;;;;;;;;19.20;56.90;;;;;;5040649;28;19920;-68
2022/04/27 08:25:34;;;;;;;;;;;19.20;57.00;;;;;;5027858;28;20355;-68
2022/04/27 08:28:00;;;;;;;;;;;19.20;56.90;;;;;;5048275;28;19909;-68
2022/04/27 08:30:25;;;;;;;;;;;19.20;56.90;;;;;;5044840;28;19927;-69
2022/04/27 08:32:50;;;;;;;;;;;19.20;57.00;;;;;;5047227;28;19956;-68
2022/04/27 08:35:16;;;;;;;;;;;19.20;56.90;;;;;;5047457;28;19913;-69
2022/04/27 08:37:41;;;;;;;;;;;19.20;56.90;;;;;;5046879;28;19916;-71
2022/04/27 08:40:07;;;;;;;;;;;19.20;56.90;;;;;;5045939;28;20498;-70
2022/04/27 08:42:32;;;;;;;;;;;19.20;56.90;;;;;;5046985;28;19920;-69
2022/04/27 08:44:58;;;;;;;;;;;19.20;56.90;;;;;;5045945;28;19909;-71
2022/04/27 08:47:24;;;;;;;;;;;19.20;56.80;;;;;;5045901;28;19917;-70
2022/04/27 08:49:49;;;;;;;;;;;19.20;56.80;;;;;;5045792;28;19913;-69
2022/04/27 08:52:15;;;;;;;;;;;19.10;56.80;;;;;;5047393;28;19924;-68
2022/04/27 08:54:40;;;;;;;;;;;19.20;56.80;;;;;;5045433;28;19913;-68
2022/04/27 08:57:06;;;;;;;;;;;19.20;56.80;;;;;;5045305;28;19963;-69
2022/04/27 08:59:31;;;;;;;;;;;19.20;56.80;;;;;;5045077;28;20331;-69
2022/04/27 09:01:57;;;;;;;;;;;19.20;56.70;;;;;;5046044;28;19993;-70
2022/04/27 09:04:22;;;;;;;;;;;19.20;56.70;;;;;;5045066;28;20347;-70
2022/04/27 09:06:49;;;;;;;;;;;19.20;56.70;;;;;;5046016;28;19960;-70
2022/04/27 09:09:30;;;;;;;;;;;19.20;57.30;;;;;;5035634;28;19920;-69
2022/04/27 09:11:56;;;;;;;;;;;19.30;57.60;;;;;;5045960;28;19955;-70
2022/04/27 09:14:21;;;;;;;;;;;19.30;57.70;;;;;;5046793;28;19952;-71
2022/04/27 09:22:25;;;;;;;;;;;19.40;57.80;;;;;;5042484;28;19987;-68
2022/04/27 09:24:51;;;;;;;;;;;19.40;57.80;;;;;;5038744;28;19917;-69
2022/04/27 09:27:18;;;;;;;;;;;19.40;57.70;;;;;;5042781;28;19912;-69
2022/04/27 09:29:53;;;;;;;;;;;19.30;57.60;;;;;;5042556;28;19912;-68
2022/04/27 09:32:19;;;;;;;;;;;19.30;57.60;;;;;;5042187;28;20403;-69
2022/04/27 09:34:45;;;;;;;;;;;19.30;57.50;;;;;;5044888;28;19913;-69
2022/04/27 09:37:20;;;;;;;;;;;19.30;58.20;;;;;;5046637;28;19936;-66
2022/04/27 09:39:46;;;;;;;;;;;19.20;57.30;;;;;;5009901;28;19919;-66
2022/04/27 09:42:14;;;;;;;;;;;19.30;57.50;;;;;;5045114;28;19917;-69
2022/04/27 09:44:39;;;;;;;;;;;19.30;57.40;;;;;;5027877;28;19993;-67
2022/04/27 09:47:05;;;;;;;;;;;19.30;57.30;;;;;;5046015;28;20375;-68
2022/04/27 09:49:31;;;;;;;;;;;19.30;57.20;;;;;;5042207;28;20003;-67
2022/04/27 09:51:57;;;;;;;;;;;19.30;57.20;;;;;;5044412;28;19909;-68
2022/04/27 09:54:28;;;;;;;;;;;19.20;57.00;;;;;;5008952;28;20410;-69
2022/04/27 09:56:56;;;;;;;;;;;19.20;57.00;;;;;;5041624;28;19920;-69
2022/04/27 09:59:26;;;;;;;;;;;19.30;57.00;;;;;;5032459;28;20578;-65
2022/04/27 10:01:53;;;;;;;;;;;19.30;56.90;;;;;;5048157;28;19912;-68
2022/04/27 10:04:18;;;;;;;;;;;19.20;56.80;;;;;;5032319;28;20287;-69
2022/04/27 10:06:44;;;;;;;;;;;19.20;56.70;;;;;;5049632;28;19916;-68
2022/04/27 10:09:09;;;;;;;;;;;19.20;56.80;;;;;;5030744;28;19912;-67
2022/04/27 10:11:35;;;;;;;;;;;19.30;56.80;;;;;;5050190;28;20000;-69
2022/04/27 10:14:00;;;;;;;;;;;19.30;56.80;;;;;;5030698;28;20363;-68
2022/04/27 10:16:26;;;;;;;;;;;19.30;56.70;;;;;;5027791;28;20041;-71
2022/04/27 10:18:51;;;;;;;;;;;19.20;56.70;;;;;;5036779;28;20433;-68
2022/04/27 10:21:39;;;;;;;;;;;19.30;56.70;;;;;;5043898;28;19913;-69
2022/04/27 10:24:05;;;;;;;;;;;19.30;56.70;;;;;;5031118;28;20499;-69
2022/04/27 10:26:31;;;;;;;;;;;19.30;56.70;;;;;;5041677;28;19913;-68
2022/04/27 10:29:04;;;;;;;;;;;19.30;56.70;;;;;;5030838;28;20157;-67
2022/04/27 10:31:48;;;;;;;;;;;19.30;56.60;;;;;;5050520;28;19916;-66
2022/04/27 10:34:19;;;;;;;;;;;19.30;56.60;;;;;;5039089;28;20016;-68
2022/04/27 10:36:47;;;;;;;;;;;19.30;56.60;;;;;;5043595;28;19995;-67
2022/04/27 10:39:12;;;;;;;;;;;19.30;56.50;;;;;;5038478;28;19913;-69
2022/04/27 10:41:38;;;;;;;;;;;19.30;56.50;;;;;;5049325;28;19920;-68
2022/04/27 10:44:04;;;;;;;;;;;19.30;56.50;;;;;;5038132;28;19958;-65
2022/04/27 10:46:36;;;;;;;;;;;19.30;56.50;;;;;;5043410;28;19967;-66
2022/04/27 10:49:08;;;;;;;;;;;19.30;56.50;;;;;;5028841;28;19988;-65
2022/04/27 10:51:51;;;;;;;;;;;19.30;56.50;;;;;;5043812;28;20283;-68
2022/04/27 10:54:17;;;;;;;;;;;19.30;56.50;;;;;;5040258;28;19913;-68
2022/04/27 10:56:42;;;;;;;;;;;19.30;56.50;;;;;;5037432;28;19915;-67
2022/04/27 10:59:28;;;;;;;;;;;19.30;56.60;;;;;;5038118;28;20344;-69
2022/04/27 11:01:53;;;;;;;;;;;19.30;57.60;;;;;;5047397;28;19917;-70
2022/04/27 11:04:19;;;;;;;;;;;19.30;57.30;;;;;;5034602;28;19917;-69
2022/04/27 11:07:04;;;;;;;;;;;19.30;57.10;;;;;;5052959;28;19913;-68
2022/04/27 11:09:49;;;;;;;;;;;19.30;57.00;;;;;;5033452;28;20459;-68
2022/04/27 11:12:14;;;;;;;;;;;19.30;56.90;;;;;;5048246;28;20583;-69
2022/04/27 11:14:40;;;;;;;;;;;19.30;56.80;;;;;;5033777;28;19916;-68
2022/04/27 11:17:06;;;;;;;;;;;19.30;56.80;;;;;;5047718;28;20252;-69
2022/04/27 11:19:35;;;;;;;;;;;19.30;56.70;;;;;;5033291;28;19919;-69
2022/04/27 11:22:13;;;;;;;;;;;19.30;56.70;;;;;;5046146;28;19909;-68
2022/04/27 11:24:39;;;;;;;;;;;19.30;56.70;;;;;;5048158;28;20063;-69
2022/04/27 11:27:05;;;;;;;;;;;19.40;56.90;;;;;;5048523;28;20404;-70
2022/04/27 11:29:32;;;;;;;;;;;19.30;57.20;;;;;;5046780;28;20346;-70
2022/04/27 11:31:58;;;;;;;;;;;19.30;57.90;;;;;;5045754;28;19921;-69
2022/04/27 11:34:24;;;;;;;;;;;19.40;58.70;;;;;;5048794;28;19915;-69
2022/04/27 11:36:50;;;;;;;;;;;19.30;59.00;;;;;;5046593;28;20001;-73
2022/04/27 11:39:22;;;;;;;;;;;19.30;58.80;;;;;;5046711;28;20133;-73
2022/04/27 11:41:55;;;;;;;;;;;19.30;59.10;;;;;;5046973;28;19909;-72
2022/04/27 11:44:21;;;;;;;;;;;19.40;59.40;;;;;;5046700;28;19913;-70
2022/04/27 11:46:47;;;;;;;;;;;19.40;59.40;;;;;;5046755;28;20019;-72
2022/04/27 11:49:12;;;;;;;;;;;19.30;59.50;;;;;;5030102;28;19913;-71
2022/04/27 11:51:38;;;;;;;;;;;19.40;60.00;;;;;;5047041;28;19940;-70
2022/04/27 11:54:03;;;;;;;;;;;19.40;60.10;;;;;;5045712;28;19913;-70
2022/04/27 11:56:34;;;;;;;;;;;19.40;59.90;;;;;;5046935;28;20336;-72
2022/04/27 11:59:06;;;;;;;;;;;19.50;59.90;;;;;;5045844;28;19912;-68
2022/04/27 12:01:31;;;;;;;;;;;19.40;59.50;;;;;;5026489;28;20011;-70
2022/04/27 12:03:57;;;;;;;;;;;19.40;59.40;;;;;;5026201;28;19974;-68
2022/04/27 12:06:23;;;;;;;;;;;19.40;59.40;;;;;;5044393;28;19955;-68
2022/04/27 12:08:49;;;;;;;;;;;19.40;59.40;;;;;;5046566;28;20326;-69
2022/04/27 12:11:23;;;;;;;;;;;19.40;59.40;;;;;;5047186;28;19908;-69
2022/04/27 12:13:49;;;;;;;;;;;19.40;59.40;;;;;;5046500;28;20373;-69
2022/04/27 12:16:14;;;;;;;;;;;19.40;59.40;;;;;;5045744;28;20528;-69
2022/04/27 12:18:52;;;;;;;;;;;19.40;59.40;;;;;;5044513;28;20260;-69
2022/04/27 12:21:18;;;;;;;;;;;19.40;59.30;;;;;;5045253;28;19908;-70
2022/04/27 12:23:44;;;;;;;;;;;19.50;59.30;;;;;;5046386;28;20000;-68
2022/04/27 12:26:11;;;;;;;;;;;19.40;59.30;;;;;;5047660;28;20329;-69
2022/04/27 12:28:47;;;;;;;;;;;19.50;59.30;;;;;;5046296;28;19996;-68
2022/04/27 12:31:14;;;;;;;;;;;19.40;59.10;;;;;;5045982;28;19916;-69
2022/04/27 12:33:43;;;;;;;;;;;19.40;59.10;;;;;;5047013;28;20372;-70
2022/04/27 12:38:56;;;;;;;;;;;19.50;59.10;;;;;;5045898;28;19981;-69
2022/04/27 12:41:31;;;;;;;;;;;19.50;59.10;;;;;;5046468;28;19921;-70
2022/04/27 12:44:09;;;;;;;;;;;19.50;59.00;;;;;;5047356;28;19924;-69
2022/04/27 12:46:35;;;;;;;;;;;19.50;59.10;;;;;;5048437;28;19940;-68
2022/04/27 12:49:05;;;;;;;;;;;19.50;58.90;;;;;;5047473;28;19949;-69
2022/04/27 12:51:33;;;;;;;;;;;19.50;58.90;;;;;;5048438;28;19913;-69
2022/04/27 12:53:59;;;;;;;;;;;19.50;58.90;;;;;;5047758;28;19909;-68
2022/04/27 12:56:31;;;;;;;;;;;19.50;58.90;;;;;;5047512;28;19958;-68
2022/04/27 12:59:09;;;;;;;;;;;19.50;58.80;;;;;;5047934;28;19916;-70
2022/04/27 13:01:34;;;;;;;;;;;19.50;58.80;;;;;;5047866;28;20474;-71
2022/04/27 13:04:00;;;;;;;;;;;19.50;58.80;;;;;;5046015;28;19924;-69
2022/04/27 13:06:26;;;;;;;;;;;19.50;58.80;;;;;;5047295;28;20287;-69
2022/04/27 13:08:52;;;;;;;;;;;19.50;58.80;;;;;;5045950;28;20379;-68
2022/04/27 13:14:02;;;;;;;;;;;19.50;58.80;;;;;;5046842;28;19920;-69
2022/04/27 13:16:27;;;;;;;;;;;19.50;58.80;;;;;;5046603;28;19909;-68
2022/04/27 13:18:55;;;;;;;;;;;19.50;58.80;;;;;;5046143;28;19956;-70
2022/04/27 13:21:20;;;;;;;;;;;19.50;58.80;;;;;;5045525;28;20055;-71
2022/04/27 13:23:46;;;;;;;;;;;19.50;58.80;;;;;;5048022;28;20070;-70
2022/04/27 13:26:12;;;;;;;;;;;19.50;58.80;;;;;;5046075;28;20493;-71
2022/04/27 13:28:40;;;;;;;;;;;19.60;58.80;;;;;;5046928;28;19920;-72
2022/04/27 13:31:08;;;;;;;;;;;19.60;58.80;;;;;;5049494;28;19925;-71
2022/04/27 13:33:34;;;;;;;;;;;19.60;59.10;;;;;;5046396;28;19909;-71
2022/04/27 13:35:59;;;;;;;;;;;19.70;59.30;;;;;;5045600;28;19955;-71
2022/04/27 13:38:27;;;;;;;;;;;19.70;59.10;;;;;;5044737;28;19987;-69
2022/04/27 13:40:53;;;;;;;;;;;19.70;59.00;;;;;;5044616;28;19951;-69
2022/04/27 13:43:19;;;;;;;;;;;19.70;59.00;;;;;;5041630;28;20016;-68
2022/04/27 13:45:44;;;;;;;;;;;19.70;59.00;;;;;;5046402;28;19936;-68
2022/04/27 13:48:10;;;;;;;;;;;19.80;59.00;;;;;;5044131;28;19920;-69
2022/04/27 13:50:35;;;;;;;;;;;19.80;59.00;;;;;;5043545;28;19909;-69
2022/04/27 13:53:01;;;;;;;;;;;19.80;59.00;;;;;;5045698;28;19913;-71
2022/04/27 13:55:27;;;;;;;;;;;19.90;59.00;;;;;;5044539;28;19970;-70
2022/04/27 13:57:53;;;;;;;;;;;19.90;59.00;;;;;;5044621;28;19944;-70
2022/04/27 14:00:19;;;;;;;;;;;19.90;59.40;;;;;;5044786;28;19919;-69
2022/04/27 14:02:45;;;;;;;;;;;19.90;59.50;;;;;;5045554;28;19909;-70
2022/04/27 14:05:10;;;;;;;;;;;20.00;59.50;;;;;;5044179;28;20363;-70
2022/04/27 14:07:36;;;;;;;;;;;20.00;59.40;;;;;;5044416;28;19920;-71
2022/04/27 14:10:03;;;;;;;;;;;19.90;59.30;;;;;;5026783;28;20638;-70
2022/04/27 14:15:13;;;;;;;;;;;19.90;59.20;;;;;;5044276;28;19932;-71
2022/04/27 14:20:22;;;;;;;;;;;20.00;59.20;;;;;;5042053;28;19924;-71
2022/04/27 14:22:49;;;;;;;;;;;20.00;59.20;;;;;;5043476;28;19917;-70
2022/04/27 14:25:15;;;;;;;;;;;20.00;59.30;;;;;;5043276;28;19913;-70
2022/04/27 14:27:40;;;;;;;;;;;20.00;59.30;;;;;;5027423;28;19917;-69
2022/04/27 14:30:11;;;;;;;;;;;20.10;59.70;;;;;;5024652;28;19923;-69
2022/04/27 14:32:36;;;;;;;;;;;20.10;60.60;;;;;;5026773;28;19987;-70
2022/04/27 14:35:01;;;;;;;;;;;20.10;60.90;;;;;;5042765;28;20518;-71
2022/04/27 14:37:27;;;;;;;;;;;20.10;60.80;;;;;;5044410;28;19913;-71
2022/04/27 14:39:52;;;;;;;;;;;20.10;61.00;;;;;;5026544;28;20010;-70
2022/04/27 14:42:19;;;;;;;;;;;20.10;60.80;;;;;;5043878;28;19913;-71
2022/04/27 14:44:44;;;;;;;;;;;20.10;60.60;;;;;;5027563;28;19956;-71
2022/04/27 14:47:10;;;;;;;;;;;20.00;60.50;;;;;;5043740;28;20018;-70
2022/04/27 14:49:35;;;;;;;;;;;20.00;60.40;;;;;;5026178;28;19924;-72